createdAt,value
2022-12-15T00:02:36.922Z,18.73
2022-12-15T00:05:23.086Z,20.38
2022-12-15T00:08:09.127Z,19.50
2022-12-15T00:10:54.993Z,18.55
2022-12-15T00:13:40.745Z,18.65
2022-12-15T00:16:26.967Z,19.08
2022-12-15T00:19:14.393Z,19.05
2022-12-15T00:21:59.923Z,18.05
2022-12-15T00:24:45.582Z,17.58
2022-12-15T00:27:35.215Z,18.20
2022-12-15T00:30:21.034Z,18.33
2022-12-15T00:33:06.544Z,17.70
2022-12-15T00:35:53.860Z,18.17
2022-12-15T00:38:39.631Z,17.38
2022-12-15T00:41:08.136Z,17.67
2022-12-15T00:43:37.474Z,18.67
2022-12-15T00:46:23.929Z,18.17
2022-12-15T00:48:52.463Z,17.75
2022-12-15T00:51:21.377Z,18.88
2022-12-15T00:54:07.227Z,17.88
2022-12-15T00:56:53.194Z,17.48
2022-12-15T00:59:38.828Z,16.83
2022-12-15T01:02:24.617Z,15.88
2022-12-15T01:05:10.389Z,17.15
2022-12-15T01:07:57.128Z,18.60
2022-12-15T01:10:42.773Z,16.90
2022-12-15T01:13:32.500Z,16.65
2022-12-15T01:16:18.387Z,17.27
2022-12-15T01:19:04.004Z,17.08
2022-12-15T01:21:33.592Z,18.17
2022-12-15T01:24:03.280Z,19.42
2022-12-15T01:26:31.614Z,18.42
2022-12-15T01:28:59.828Z,16.30
2022-12-15T01:31:28.098Z,17.10
2022-12-15T01:33:56.440Z,18.90
2022-12-15T01:36:24.789Z,18.98
2022-12-15T01:38:54.576Z,18.42
2022-12-15T01:41:23.681Z,17.70
2022-12-15T01:43:52.003Z,18.70
2022-12-15T01:46:22.377Z,17.95
2022-12-15T01:48:55.695Z,17.10
2022-12-15T01:51:28.128Z,18.20
2022-12-15T01:54:01.090Z,18.00
2022-12-15T01:56:37.270Z,17.35
2022-12-15T01:59:09.064Z,17.58
2022-12-15T02:01:37.413Z,18.73
2022-12-15T02:04:05.981Z,18.20
2022-12-15T02:06:34.317Z,17.13
2022-12-15T02:09:03.421Z,17.38
2022-12-15T02:11:45.546Z,17.10
2022-12-15T02:14:21.164Z,18.15
2022-12-15T02:17:03.499Z,17.60
2022-12-15T02:20:24.466Z,17.80
2022-12-15T02:23:21.559Z,18.33
2022-12-15T02:26:15.537Z,17.90
2022-12-15T02:28:53.869Z,18.05
2022-12-15T02:31:46.475Z,18.17
2022-12-15T02:34:25.856Z,16.88
2022-12-15T02:36:58.744Z,18.00
2022-12-15T02:39:27.448Z,18.42
2022-12-15T02:41:55.865Z,16.85
2022-12-15T02:44:27.654Z,19.75
2022-12-15T02:47:20.003Z,16.50
2022-12-15T02:50:05.572Z,17.25
2022-12-15T02:52:45.385Z,16.92
2022-12-15T02:55:21.442Z,16.60
2022-12-15T02:57:57.936Z,16.42
2022-12-15T03:00:26.349Z,17.20
2022-12-15T03:02:57.287Z,17.65
2022-12-15T03:05:26.952Z,17.13
2022-12-15T03:07:56.054Z,17.10
2022-12-15T03:10:26.231Z,18.58
2022-12-15T03:12:55.788Z,17.52
2022-12-15T03:15:23.988Z,17.48
2022-12-15T03:17:53.234Z,17.48
2022-12-15T03:20:23.045Z,18.85
2022-12-15T03:22:51.234Z,18.40
2022-12-15T03:25:19.504Z,18.55
2022-12-15T03:27:47.771Z,17.27
2022-12-15T03:30:16.564Z,18.25
2022-12-15T03:32:44.835Z,17.38
2022-12-15T03:35:13.558Z,18.40
2022-12-15T03:37:43.872Z,18.88
2022-12-15T03:40:14.406Z,16.90
2022-12-15T03:42:51.572Z,17.90
2022-12-15T03:45:21.776Z,18.55
2022-12-15T03:47:50.401Z,17.98
2022-12-15T03:50:20.907Z,17.00
2022-12-15T03:52:53.788Z,15.55
2022-12-15T03:55:22.921Z,16.45
2022-12-15T03:57:51.747Z,16.52
2022-12-15T04:00:21.927Z,15.88
2022-12-15T04:02:50.760Z,15.65
2022-12-15T04:05:22.198Z,16.75
2022-12-15T04:07:50.750Z,16.13
2022-12-15T04:10:20.740Z,18.42
2022-12-15T04:12:49.039Z,17.05
2022-12-15T04:15:17.421Z,17.08
2022-12-15T04:17:45.705Z,16.88
2022-12-15T04:20:14.079Z,25.95
2022-12-15T04:22:44.115Z,17.20
2022-12-15T04:25:32.962Z,19.50
2022-12-15T04:28:20.436Z,17.48
2022-12-15T04:31:10.526Z,18.98
2022-12-15T04:33:58.498Z,18.27
2022-12-15T04:36:44.705Z,17.70
2022-12-15T04:39:30.457Z,19.23
2022-12-15T04:42:17.992Z,17.52
2022-12-15T04:45:06.382Z,19.23
2022-12-15T04:47:52.405Z,19.17
2022-12-15T04:50:38.191Z,17.23
2022-12-15T04:53:28.142Z,20.17
2022-12-15T04:56:18.403Z,16.92
2022-12-15T04:59:04.534Z,18.17
2022-12-15T05:01:52.198Z,17.90
2022-12-15T05:04:38.133Z,17.52
2022-12-15T05:07:23.961Z,18.15
2022-12-15T05:10:15.200Z,17.27
2022-12-15T05:13:01.264Z,18.67
2022-12-15T05:15:47.356Z,17.50
2022-12-15T05:18:34.263Z,16.88
2022-12-15T05:21:19.823Z,19.33
2022-12-15T05:24:05.235Z,19.58
2022-12-15T05:26:53.212Z,19.80
2022-12-15T05:29:39.122Z,19.67
2022-12-15T05:32:07.766Z,18.25
2022-12-15T05:34:38.375Z,18.15
2022-12-15T05:37:07.492Z,18.88
2022-12-15T05:39:35.871Z,19.05
2022-12-15T05:42:04.152Z,18.88
2022-12-15T05:44:32.454Z,17.88
2022-12-15T05:47:00.633Z,19.25
2022-12-15T05:49:28.916Z,18.52
2022-12-15T05:51:58.605Z,17.75
2022-12-15T05:54:27.067Z,18.38
2022-12-15T05:56:55.291Z,17.17
2022-12-15T05:59:23.716Z,17.80
2022-12-15T06:01:52.107Z,18.77
2022-12-15T06:04:20.820Z,16.65
2022-12-15T06:06:49.238Z,20.30
2022-12-15T06:09:18.883Z,20.23
2022-12-15T06:11:47.139Z,19.05
2022-12-15T06:14:15.495Z,19.27
2022-12-15T06:16:50.838Z,20.55
2022-12-15T06:19:20.242Z,20.25
2022-12-15T06:21:48.781Z,21.48
2022-12-15T06:24:18.517Z,20.60
2022-12-15T06:26:49.933Z,18.55
2022-12-15T06:29:19.083Z,20.08
2022-12-15T06:31:47.903Z,20.15
2022-12-15T06:34:17.818Z,20.15
2022-12-15T06:36:46.550Z,21.00
2022-12-15T06:39:16.824Z,22.15
2022-12-15T06:41:46.646Z,21.35
2022-12-15T06:44:15.766Z,22.05
2022-12-15T06:46:45.935Z,20.85
2022-12-15T06:49:14.464Z,20.20
2022-12-15T06:51:44.152Z,20.33
2022-12-15T06:54:13.043Z,20.15
2022-12-15T06:56:42.469Z,20.58
2022-12-15T06:59:13.357Z,19.90
2022-12-15T07:01:43.150Z,19.88
2022-12-15T07:04:11.947Z,21.05
2022-12-15T07:06:40.957Z,20.05
2022-12-15T07:09:13.768Z,19.73
2022-12-15T07:11:42.017Z,21.33
2022-12-15T07:14:12.345Z,19.98
2022-12-15T07:16:41.164Z,19.92
2022-12-15T07:19:12.760Z,22.15
2022-12-15T07:21:41.178Z,19.25
2022-12-15T07:24:11.822Z,21.13
2022-12-15T07:26:40.087Z,20.60
2022-12-15T07:29:08.429Z,19.45
2022-12-15T07:31:38.044Z,21.52
2022-12-15T07:34:06.304Z,21.50
2022-12-15T07:36:34.880Z,27.08
2022-12-15T07:39:04.074Z,23.38
2022-12-15T07:41:32.662Z,24.25
2022-12-15T07:44:02.316Z,23.05
2022-12-15T07:46:30.768Z,22.52
2022-12-15T07:49:00.556Z,24.30
2022-12-15T07:51:29.155Z,22.45
2022-12-15T07:53:57.712Z,22.55
2022-12-15T07:56:26.013Z,23.33
2022-12-15T07:58:54.350Z,22.60
2022-12-15T08:01:22.825Z,21.88
2022-12-15T08:03:51.346Z,23.27
2022-12-15T08:06:21.101Z,21.67
2022-12-15T08:08:51.215Z,21.67
2022-12-15T08:11:21.567Z,19.90
2022-12-15T08:16:39.817Z,20.30
2022-12-15T08:19:11.565Z,20.83
2022-12-15T08:21:42.688Z,19.80
2022-12-15T08:24:11.645Z,19.13
2022-12-15T08:26:41.213Z,18.92
2022-12-15T08:29:48.880Z,20.52
2022-12-15T08:32:00.591Z,19.52
2022-12-15T08:34:28.983Z,21.05
2022-12-15T08:36:58.608Z,21.73
2022-12-15T08:39:27.035Z,20.25
2022-12-15T08:41:55.282Z,19.45
2022-12-15T08:44:23.713Z,20.00
2022-12-15T08:46:52.380Z,20.75
2022-12-15T08:49:22.363Z,18.50
2022-12-15T08:51:51.375Z,19.02
2022-12-15T08:54:21.690Z,18.75
2022-12-15T08:56:50.040Z,19.25
2022-12-15T08:59:19.139Z,18.45
2022-12-15T09:01:47.692Z,20.80
2022-12-15T09:04:16.611Z,22.23
2022-12-15T09:06:50.333Z,21.05
2022-12-15T09:09:21.192Z,23.80
2022-12-15T09:11:49.712Z,20.70
2022-12-15T09:14:21.568Z,19.88
2022-12-15T09:16:54.074Z,21.08
2022-12-15T09:19:22.395Z,19.38
2022-12-15T09:21:50.669Z,16.00
2022-12-15T09:24:32.193Z,16.83
2022-12-15T09:27:03.527Z,17.35
2022-12-15T09:29:32.035Z,17.65
2022-12-15T09:32:00.525Z,15.85
2022-12-15T09:34:29.273Z,17.38
2022-12-15T09:36:57.904Z,17.77
2022-12-15T09:39:27.787Z,18.00
2022-12-15T09:41:59.783Z,17.65
2022-12-15T09:44:29.555Z,16.52
2022-12-15T09:47:07.061Z,20.58
2022-12-15T09:49:47.241Z,19.30
2022-12-15T09:52:18.388Z,16.23
2022-12-15T09:54:48.627Z,18.75
2022-12-15T09:57:26.048Z,19.10
2022-12-15T10:00:16.836Z,17.45
2022-12-15T10:03:30.226Z,17.33
2022-12-15T10:06:16.565Z,16.52
2022-12-15T10:08:58.771Z,16.00
2022-12-15T10:11:44.480Z,15.80
2022-12-15T10:14:26.272Z,15.45
2022-12-15T10:17:02.456Z,15.38
2022-12-15T10:19:40.338Z,14.48
2022-12-15T10:22:14.511Z,15.07
2022-12-15T10:27:55.301Z,15.48
2022-12-15T10:30:23.696Z,15.90
2022-12-15T10:32:58.441Z,16.38
2022-12-15T10:35:30.754Z,15.50
2022-12-15T10:38:01.228Z,15.40
2022-12-15T10:40:50.516Z,16.05
2022-12-15T10:43:27.596Z,16.40
2022-12-15T10:46:05.882Z,15.73
2022-12-15T10:48:34.282Z,15.77
2022-12-15T10:51:20.335Z,17.58
2022-12-15T10:53:50.897Z,14.70
2022-12-15T10:56:32.271Z,14.52
2022-12-15T10:59:22.224Z,13.67
2022-12-15T11:01:53.783Z,14.15
2022-12-15T11:04:29.893Z,15.15
2022-12-15T11:06:59.742Z,15.40
2022-12-15T11:09:34.259Z,15.50
2022-12-15T11:12:20.407Z,15.95
2022-12-15T11:14:51.676Z,16.52
2022-12-15T11:17:21.885Z,17.10
2022-12-15T11:19:59.986Z,15.43
2022-12-15T11:22:47.879Z,17.48
2022-12-15T11:25:30.029Z,16.73
2022-12-15T11:28:01.379Z,16.50
2022-12-15T11:30:39.602Z,17.52
2022-12-15T11:33:09.946Z,17.75
2022-12-15T11:35:57.948Z,18.42
2022-12-15T11:38:33.736Z,17.70
2022-12-15T11:41:09.140Z,17.17
2022-12-15T11:44:06.645Z,17.90
2022-12-15T11:46:42.261Z,15.63
2022-12-15T11:49:42.217Z,17.10
2022-12-15T11:52:18.524Z,17.90
2022-12-15T11:54:55.683Z,17.42
2022-12-15T11:57:54.191Z,19.98
2022-12-15T12:00:26.114Z,15.38
2022-12-15T12:03:13.909Z,15.88
2022-12-15T12:06:08.629Z,14.95
2022-12-15T12:09:10.105Z,16.75
2022-12-15T12:11:44.249Z,15.63
2022-12-15T12:14:33.178Z,15.88
2022-12-15T12:17:08.282Z,16.25
2022-12-15T12:19:42.409Z,14.68
2022-12-15T12:22:17.627Z,15.70
2022-12-15T12:24:48.985Z,15.63
2022-12-15T12:27:30.048Z,16.75
2022-12-15T12:30:03.777Z,14.30
2022-12-15T12:32:40.449Z,15.98
2022-12-15T12:35:30.598Z,15.00
2022-12-15T12:41:00.753Z,15.43
2022-12-15T12:43:34.956Z,15.77
2022-12-15T12:46:10.130Z,15.20
2022-12-15T12:48:42.164Z,14.73
2022-12-15T12:51:31.138Z,15.35
2022-12-15T12:54:03.291Z,15.40
2022-12-15T12:56:43.718Z,19.23
2022-12-15T12:59:38.704Z,16.88
2022-12-15T13:02:46.642Z,18.20
2022-12-15T13:05:28.966Z,16.92
2022-12-15T13:08:27.860Z,17.27
2022-12-15T13:10:57.284Z,17.20
2022-12-15T13:13:51.337Z,16.45
2022-12-15T13:16:25.726Z,16.40
2022-12-15T13:19:05.294Z,16.15
2022-12-15T13:21:55.027Z,15.90
2022-12-15T13:24:37.505Z,15.70
2022-12-15T13:27:15.269Z,15.33
2022-12-15T13:30:14.825Z,15.63
2022-12-15T13:32:45.092Z,15.75
2022-12-15T13:35:26.646Z,15.38
2022-12-15T13:37:56.965Z,15.57
2022-12-15T13:40:34.929Z,15.57
2022-12-15T13:43:11.743Z,15.18
2022-12-15T13:45:51.156Z,17.15
2022-12-15T13:48:33.694Z,18.23
2022-12-15T13:51:20.457Z,15.93
2022-12-15T13:53:52.402Z,17.65
2022-12-15T13:59:01.907Z,18.98
2022-12-15T14:01:33.426Z,16.23
2022-12-15T14:04:07.035Z,19.33
2022-12-15T14:06:42.585Z,16.67
2022-12-15T14:09:15.550Z,20.27
2022-12-15T14:11:54.760Z,16.90
2022-12-15T14:14:28.540Z,15.43
2022-12-15T14:16:59.975Z,16.50
2022-12-15T14:19:38.668Z,16.10
2022-12-15T14:22:28.142Z,16.40
2022-12-15T14:25:03.336Z,17.50
2022-12-15T14:27:35.021Z,16.38
2022-12-15T14:30:29.392Z,18.05
2022-12-15T14:33:00.907Z,16.70
2022-12-15T14:35:32.793Z,17.75
2022-12-15T14:38:04.896Z,16.60
2022-12-15T14:40:36.780Z,17.13
2022-12-15T14:43:07.785Z,16.63
2022-12-15T14:45:36.112Z,17.70
2022-12-15T14:51:01.181Z,18.63
2022-12-15T14:53:34.283Z,18.48
2022-12-15T14:58:48.134Z,14.88
2022-12-15T15:01:25.880Z,16.73
2022-12-15T15:03:10.316Z,15.10
2022-12-15T15:04:02.457Z,17.42
2022-12-15T15:06:37.311Z,17.05
2022-12-15T15:09:18.432Z,17.70
2022-12-15T15:11:48.427Z,18.20
2022-12-15T15:14:21.887Z,18.35
2022-12-15T15:17:03.568Z,18.75
2022-12-15T15:19:36.158Z,17.95
2022-12-15T15:22:07.946Z,17.65
2022-12-15T15:24:39.499Z,19.40
2022-12-15T15:27:32.656Z,19.60
2022-12-15T15:30:21.258Z,21.05
2022-12-15T15:32:57.326Z,17.98
2022-12-15T15:35:27.270Z,16.42
2022-12-15T15:38:06.039Z,19.40
2022-12-15T15:40:34.303Z,17.92
2022-12-15T15:43:02.944Z,18.85
2022-12-15T15:45:32.524Z,18.08
2022-12-15T15:48:00.737Z,21.58
2022-12-15T15:50:30.890Z,20.15
2022-12-15T15:53:02.417Z,17.98
2022-12-15T15:55:39.456Z,18.20
2022-12-15T15:58:12.354Z,21.60
2022-12-15T16:00:41.918Z,27.67
2022-12-15T16:03:10.979Z,22.40
2022-12-15T16:05:39.987Z,26.17
2022-12-15T16:08:08.882Z,25.13
2022-12-15T16:10:37.090Z,19.73
2022-12-15T16:13:05.384Z,18.08
2022-12-15T16:15:33.755Z,25.52
2022-12-15T16:18:03.466Z,25.50
2022-12-15T16:20:35.355Z,26.17
2022-12-15T16:23:05.982Z,22.88
2022-12-15T16:25:46.660Z,20.23
2022-12-15T16:28:18.624Z,28.33
2022-12-15T16:30:47.089Z,42.08
2022-12-15T16:33:19.931Z,30.48
2022-12-15T16:35:49.376Z,20.13
2022-12-15T16:38:23.060Z,21.33
2022-12-15T16:40:52.152Z,17.48
2022-12-15T16:43:23.551Z,18.45
2022-12-15T16:45:53.556Z,18.48
2022-12-15T16:48:23.464Z,19.27
2022-12-15T16:50:55.237Z,18.63
2022-12-15T16:53:25.741Z,19.33
2022-12-15T16:55:56.325Z,19.38
2022-12-15T16:58:27.230Z,21.05
2022-12-15T17:00:55.478Z,22.92
2022-12-15T17:03:27.682Z,23.85
2022-12-15T17:05:59.292Z,30.08
2022-12-15T17:08:34.746Z,30.55
2022-12-15T17:11:03.481Z,27.73
2022-12-15T17:13:40.526Z,22.90
2022-12-15T17:16:14.224Z,23.25
2022-12-15T17:18:44.734Z,24.30
2022-12-15T17:21:17.544Z,21.30
2022-12-15T17:23:47.180Z,20.27
2022-12-15T17:26:28.226Z,25.40
2022-12-15T17:28:59.780Z,21.13
2022-12-15T17:31:34.732Z,25.83
2022-12-15T17:34:23.719Z,24.27
2022-12-15T17:36:51.932Z,26.75
2022-12-15T17:39:22.132Z,30.08
2022-12-15T17:42:05.940Z,27.45
2022-12-15T17:44:38.241Z,27.55
2022-12-15T17:49:39.302Z,22.25
2022-12-15T17:52:14.372Z,31.35
2022-12-15T17:54:42.559Z,28.10
2022-12-15T17:57:12.169Z,22.23
2022-12-15T17:59:40.397Z,23.17
2022-12-15T18:02:11.578Z,22.38
2022-12-15T18:04:44.508Z,20.98
2022-12-15T18:07:18.547Z,18.98
2022-12-15T18:09:47.733Z,20.58
2022-12-15T18:12:19.944Z,29.45
2022-12-15T18:14:50.291Z,35.30
2022-12-15T18:17:18.573Z,51.47
2022-12-15T18:19:48.340Z,30.65
2022-12-15T18:22:21.083Z,31.75
2022-12-15T18:24:50.290Z,24.77
2022-12-15T18:27:23.932Z,25.13
2022-12-15T18:29:52.429Z,28.38
2022-12-15T18:32:22.493Z,21.08
2022-12-15T18:34:52.361Z,24.48
2022-12-15T18:37:23.065Z,28.17
2022-12-15T18:39:51.696Z,26.27
2022-12-15T18:42:22.096Z,25.00
2022-12-15T18:44:52.029Z,27.38
2022-12-15T18:47:22.502Z,33.30
2022-12-15T18:49:53.056Z,30.42
2022-12-15T18:52:23.363Z,23.48
2022-12-15T18:54:54.096Z,21.73
2022-12-15T18:57:29.616Z,20.20
2022-12-15T18:59:59.897Z,22.65
2022-12-15T19:02:28.300Z,21.45
2022-12-15T19:04:58.270Z,21.55
2022-12-15T19:07:26.499Z,19.08
2022-12-15T19:09:55.029Z,19.67
2022-12-15T19:12:23.294Z,21.98
2022-12-15T19:14:53.615Z,24.45
2022-12-15T19:17:42.198Z,21.70
2022-12-15T19:20:35.240Z,25.77
2022-12-15T19:23:03.921Z,22.80
2022-12-15T19:25:32.499Z,21.42
2022-12-15T19:28:02.201Z,22.10
2022-12-15T19:30:37.028Z,20.17
2022-12-15T19:33:10.382Z,20.73
2022-12-15T19:35:41.952Z,24.95
2022-12-15T19:38:18.451Z,28.90
2022-12-15T19:40:47.614Z,31.80
2022-12-15T19:43:17.600Z,27.58
2022-12-15T19:45:46.051Z,28.10
2022-12-15T19:48:17.565Z,29.23
2022-12-15T19:50:51.800Z,32.40
2022-12-15T19:53:26.981Z,32.58
2022-12-15T19:55:57.406Z,27.20
2022-12-15T19:58:29.347Z,25.98
2022-12-15T20:01:01.151Z,26.58
2022-12-15T20:03:31.057Z,27.13
2022-12-15T20:06:02.648Z,28.50
2022-12-15T20:08:35.622Z,33.42
2022-12-15T20:13:32.673Z,35.50
2022-12-15T20:16:01.138Z,30.50
2022-12-15T20:18:30.071Z,33.83
2022-12-15T20:21:01.789Z,41.28
2022-12-15T20:23:31.978Z,32.92
2022-12-15T20:26:01.148Z,24.55
2022-12-15T20:28:31.497Z,20.50
2022-12-15T20:31:00.486Z,21.10
2022-12-15T20:33:28.984Z,20.73
2022-12-15T20:35:57.668Z,20.27
2022-12-15T20:38:30.225Z,21.40
2022-12-15T20:40:59.536Z,20.67
2022-12-15T20:43:31.266Z,23.20
2022-12-15T20:46:04.278Z,22.83
2022-12-15T20:48:34.819Z,29.80
2022-12-15T20:51:08.853Z,21.77
2022-12-15T20:53:39.878Z,21.55
2022-12-15T20:56:09.262Z,20.88
2022-12-15T20:58:40.406Z,21.58
2022-12-15T21:01:19.435Z,19.02
2022-12-15T21:03:48.580Z,20.75
2022-12-15T21:06:16.955Z,22.88
2022-12-15T21:08:47.024Z,23.20
2022-12-15T21:11:18.450Z,21.13
2022-12-15T21:13:49.058Z,27.65
2022-12-15T21:16:19.708Z,29.92
2022-12-15T21:21:38.909Z,18.15
2022-12-15T21:24:17.302Z,17.52
2022-12-15T21:26:46.169Z,18.77
2022-12-15T21:29:16.202Z,18.02
2022-12-15T21:31:44.989Z,19.30
2022-12-15T21:34:13.832Z,18.00
2022-12-15T21:36:44.637Z,18.65
2022-12-15T21:39:21.961Z,18.90
2022-12-15T21:41:50.403Z,19.25
2022-12-15T21:44:19.010Z,20.00
2022-12-15T21:46:47.459Z,19.85
2022-12-15T21:49:15.612Z,18.30
2022-12-15T21:51:47.018Z,16.45
2022-12-15T21:54:19.353Z,15.52
2022-12-15T21:56:48.731Z,14.95
2022-12-15T21:59:18.562Z,14.13
2022-12-15T22:01:47.792Z,15.60
2022-12-15T22:04:19.842Z,15.38
2022-12-15T22:06:50.796Z,15.47
2022-12-15T22:09:21.765Z,15.90
2022-12-15T22:11:54.010Z,15.77
2022-12-15T22:14:26.050Z,13.55
2022-12-15T22:16:54.836Z,14.38
2022-12-15T22:19:25.324Z,15.98
2022-12-15T22:21:53.547Z,16.23
2022-12-15T22:24:23.369Z,16.55
2022-12-15T22:26:51.806Z,15.77
2022-12-15T22:29:22.342Z,14.65
2022-12-15T22:31:51.960Z,14.05
2022-12-15T22:34:22.957Z,16.20
2022-12-15T22:36:52.135Z,19.95
2022-12-15T22:39:22.151Z,21.88
2022-12-15T22:41:51.876Z,16.58
2022-12-15T22:44:23.735Z,16.73
2022-12-15T22:46:54.154Z,16.67
2022-12-15T22:49:24.479Z,16.02
2022-12-15T22:51:52.666Z,14.50
2022-12-15T22:54:27.245Z,14.77
2022-12-15T22:56:58.643Z,13.85
2022-12-15T22:59:30.271Z,13.20
2022-12-15T23:01:58.830Z,15.48
2022-12-15T23:04:27.111Z,14.52
2022-12-15T23:06:55.332Z,13.50
2022-12-15T23:09:24.879Z,14.43
2022-12-15T23:11:52.049Z,14.77
2022-12-15T23:14:40.555Z,13.35
2022-12-15T23:17:08.221Z,12.38
2022-12-15T23:19:36.681Z,13.43
2022-12-15T23:22:04.857Z,12.77
2022-12-15T23:24:35.170Z,12.57
2022-12-15T23:27:03.398Z,13.45
2022-12-15T23:29:31.659Z,12.88
2022-12-15T23:31:59.836Z,13.55
2022-12-15T23:34:28.062Z,12.32
2022-12-15T23:36:56.289Z,18.58
2022-12-15T23:39:24.449Z,14.70
2022-12-15T23:41:54.017Z,11.82
2022-12-15T23:44:22.974Z,11.90
2022-12-15T23:46:51.219Z,13.10
2022-12-15T23:49:19.523Z,12.02
2022-12-15T23:51:48.338Z,11.32
2022-12-15T23:54:16.818Z,11.88
2022-12-15T23:56:44.997Z,12.55
2022-12-15T23:59:14.788Z,12.43
